createdAt,value
2019-01-20T00:00:52.747Z,101776.01
2019-01-20T00:03:22.586Z,101780.02
2019-01-20T00:05:52.545Z,101779.55
2019-01-20T00:08:22.665Z,101779.56
2019-01-20T00:10:52.531Z,101771.59
2019-01-20T00:13:22.282Z,101779.56
2019-01-20T00:15:52.227Z,101775.58
2019-01-20T00:18:22.121Z,101774.26
2019-01-20T00:20:52.170Z,101775.56
2019-01-20T00:23:22.125Z,101777.78
2019-01-20T00:25:52.848Z,101780.45
2019-01-20T00:28:22.736Z,101776.03
2019-01-20T00:30:54.194Z,101776.03
2019-01-20T00:33:24.223Z,101777.36
2019-01-20T00:35:56.051Z,101777.78
2019-01-20T00:38:28.444Z,101781.78
2019-01-20T00:40:59.810Z,101783.09
2019-01-20T00:43:29.924Z,101780.89
2019-01-20T00:46:00.763Z,101782.65
2019-01-20T00:48:30.605Z,101780.02
2019-01-20T00:51:00.326Z,101781.33
2019-01-20T00:53:30.179Z,101778.25
2019-01-20T00:56:00.058Z,101777.34
2019-01-20T00:58:30.279Z,101779.55
2019-01-20T01:01:03.232Z,101777.36
2019-01-20T01:03:34.673Z,101773.80
2019-01-20T01:06:04.494Z,101781.78
2019-01-20T01:08:34.385Z,101772.92
2019-01-20T01:11:04.929Z,101772.95
2019-01-20T01:13:35.284Z,101779.57
2019-01-20T01:16:05.360Z,101778.27
2019-01-20T01:18:35.296Z,101776.47
2019-01-20T01:21:05.589Z,101780.44
2019-01-20T01:23:35.376Z,101776.49
2019-01-20T01:26:05.546Z,101778.26
2019-01-20T01:28:35.591Z,101771.63
2019-01-20T01:31:14.193Z,101776.02
2019-01-20T01:33:44.204Z,101780.88
2019-01-20T01:36:13.962Z,101777.36
2019-01-20T01:38:43.938Z,101772.06
2019-01-20T01:41:15.383Z,101777.80
2019-01-20T01:43:45.301Z,101776.03
2019-01-20T01:46:15.361Z,101774.27
2019-01-20T01:48:45.052Z,101763.65
2019-01-20T01:51:15.559Z,101767.61
2019-01-20T01:53:45.448Z,101764.52
2019-01-20T01:56:17.589Z,101768.06
2019-01-20T01:58:47.927Z,101766.71
2019-01-20T02:01:18.025Z,101767.59
2019-01-20T02:03:48.349Z,101773.78
2019-01-20T02:06:18.644Z,101768.02
2019-01-20T02:08:48.764Z,101761.84
2019-01-20T02:11:19.253Z,101764.04
2019-01-20T02:13:50.232Z,101764.06
2019-01-20T02:16:20.695Z,101764.48
2019-01-20T02:18:50.681Z,101758.72
2019-01-20T02:21:20.978Z,101762.25
2019-01-20T02:23:53.334Z,101761.80
2019-01-20T02:26:24.124Z,101767.52
2019-01-20T02:28:53.971Z,101758.25
2019-01-20T02:31:23.830Z,101766.22
2019-01-20T02:33:54.324Z,101755.61
2019-01-20T02:36:24.287Z,101763.58
2019-01-20T02:38:54.499Z,101766.23
2019-01-20T02:41:24.215Z,101764.45
2019-01-20T02:43:53.932Z,101765.77
2019-01-20T02:46:23.566Z,101767.98
2019-01-20T02:48:53.628Z,101775.52
2019-01-20T02:51:24.135Z,101767.11
2019-01-20T02:53:54.923Z,101768.85
2019-01-20T02:56:25.161Z,101767.50
2019-01-20T02:58:54.871Z,101762.19
2019-01-20T03:01:25.214Z,101763.94
2019-01-20T03:03:56.068Z,101760.38
2019-01-20T03:06:26.427Z,101754.58
2019-01-20T03:08:56.482Z,101753.17
2019-01-20T03:11:26.422Z,101754.05
2019-01-20T03:13:58.649Z,101752.27
2019-01-20T03:16:29.136Z,101750.94
2019-01-20T03:18:59.907Z,101753.62
2019-01-20T03:21:31.303Z,101748.31
2019-01-20T03:24:03.607Z,101749.67
2019-01-20T03:26:33.667Z,101747.91
2019-01-20T03:29:04.576Z,101752.34
2019-01-20T03:31:36.428Z,101750.56
2019-01-20T03:34:06.721Z,101754.98
2019-01-20T03:36:36.960Z,101754.55
2019-01-20T03:39:08.412Z,101752.37
2019-01-20T03:41:41.530Z,101755.03
2019-01-20T03:44:13.496Z,101756.36
2019-01-20T03:46:44.126Z,101755.05
2019-01-20T03:49:14.536Z,101755.51
2019-01-20T03:51:44.933Z,101752.39
2019-01-20T03:54:14.641Z,101753.72
2019-01-20T03:56:47.011Z,101747.49
2019-01-20T03:59:17.691Z,101753.59
2019-01-20T04:01:47.810Z,101751.39
2019-01-20T04:04:18.126Z,101760.26
2019-01-20T04:06:48.154Z,101753.56
2019-01-20T04:09:19.980Z,101755.77
2019-01-20T04:11:51.827Z,101754.08
2019-01-20T04:14:22.411Z,101762.48
2019-01-20T04:16:52.852Z,101760.26
2019-01-20T04:19:23.385Z,101762.89
2019-01-20T04:21:54.352Z,101762.05
2019-01-20T04:24:24.994Z,101758.45
2019-01-20T04:26:55.512Z,101765.08
2019-01-20T04:29:25.243Z,101768.17
2019-01-20T04:31:55.550Z,101761.48
2019-01-20T04:34:25.753Z,101768.61
2019-01-20T04:36:56.047Z,101765.56
2019-01-20T04:39:26.284Z,101765.53
2019-01-20T04:41:56.577Z,101758.91
2019-01-20T04:44:28.067Z,101760.71
2019-01-20T04:46:58.868Z,101757.14
2019-01-20T04:49:30.076Z,101758.92
2019-01-20T04:52:01.556Z,101763.38
2019-01-20T04:54:32.524Z,101764.24
2019-01-20T04:57:02.785Z,101754.44
2019-01-20T04:59:34.141Z,101754.91
2019-01-20T05:02:05.262Z,101747.81
2019-01-20T05:04:36.073Z,101750.04
2019-01-20T05:07:06.953Z,101755.33
2019-01-20T05:09:37.093Z,101746.95
2019-01-20T05:12:07.341Z,101746.05
2019-01-20T05:14:38.013Z,101729.15
2019-01-20T05:17:08.333Z,101731.38
2019-01-20T05:19:39.730Z,101744.25
2019-01-20T05:22:10.097Z,101740.73
2019-01-20T05:24:41.933Z,101739.41
2019-01-20T05:27:11.730Z,101735.86
2019-01-20T05:29:42.483Z,101743.42
2019-01-20T05:32:12.311Z,101745.64
2019-01-20T05:34:43.748Z,101746.05
2019-01-20T05:37:13.899Z,101749.16
2019-01-20T05:39:45.408Z,101746.95
2019-01-20T05:42:17.325Z,101740.23
2019-01-20T05:44:51.407Z,101742.94
2019-01-20T05:47:22.401Z,101743.78
2019-01-20T05:49:53.146Z,101752.12
2019-01-20T05:52:25.871Z,101743.77
2019-01-20T05:54:56.454Z,101756.63
2019-01-20T05:57:26.716Z,101761.08
2019-01-20T05:59:57.394Z,101759.77
2019-01-20T06:02:29.700Z,101760.22
2019-01-20T06:05:00.323Z,101765.11
2019-01-20T06:07:32.085Z,101765.55
2019-01-20T06:10:11.049Z,101765.11
2019-01-20T06:12:41.726Z,101762.46
2019-01-20T06:15:20.088Z,101761.15
2019-01-20T06:17:50.301Z,101763.83
2019-01-20T06:20:21.047Z,101769.55
2019-01-20T06:22:52.827Z,101757.06
2019-01-20T06:25:26.629Z,101757.08
2019-01-20T06:27:58.488Z,101757.06
2019-01-20T06:30:31.413Z,101772.59
2019-01-20T06:33:02.464Z,101766.80
2019-01-20T06:35:34.250Z,101777.05
2019-01-20T06:38:04.506Z,101773.53
2019-01-20T06:40:34.565Z,101780.62
2019-01-20T06:43:04.833Z,101781.55
2019-01-20T06:45:36.915Z,101793.50
2019-01-20T06:48:09.372Z,101786.37
2019-01-20T06:50:40.152Z,101784.59
2019-01-20T06:53:09.787Z,101782.78
2019-01-20T06:55:40.982Z,101786.33
2019-01-20T06:58:10.853Z,101783.68
2019-01-20T07:00:40.728Z,101789.45
2019-01-20T07:03:13.081Z,101800.52
2019-01-20T07:05:45.303Z,101799.64
2019-01-20T07:08:15.298Z,101804.06
2019-01-20T07:10:46.940Z,101808.97
2019-01-20T07:13:16.600Z,101814.73
2019-01-20T07:15:48.087Z,101813.40
2019-01-20T07:18:17.626Z,101809.42
2019-01-20T07:20:47.410Z,101820.07
2019-01-20T07:23:17.003Z,101824.03
2019-01-20T07:25:46.985Z,101824.91
2019-01-20T07:28:18.774Z,101824.00
2019-01-20T07:30:50.207Z,101828.38
2019-01-20T07:33:22.345Z,101826.64
2019-01-20T07:35:53.524Z,101831.08
2019-01-20T07:38:24.246Z,101832.86
2019-01-20T07:40:56.987Z,101832.88
2019-01-20T07:43:29.201Z,101841.73
2019-01-20T07:46:00.092Z,101843.94
2019-01-20T07:48:30.740Z,101845.25
2019-01-20T07:51:02.034Z,101846.56
2019-01-20T07:53:33.639Z,101856.80
2019-01-20T07:56:03.649Z,101855.00
2019-01-20T07:58:35.245Z,101851.00
2019-01-20T08:01:06.904Z,101858.05
2019-01-20T08:03:38.394Z,101858.88
2019-01-20T08:06:08.963Z,101863.75
2019-01-20T08:08:40.445Z,101872.08
2019-01-20T08:11:11.274Z,101866.31
2019-01-20T08:13:42.520Z,101865.80
2019-01-20T08:16:12.435Z,101864.05
2019-01-20T08:18:43.217Z,101863.61
2019-01-20T08:21:14.759Z,101862.66
2019-01-20T08:23:45.019Z,101863.90
2019-01-20T08:26:14.955Z,101874.53
2019-01-20T08:28:45.111Z,101872.69
2019-01-20T08:31:15.731Z,101870.46
2019-01-20T08:33:45.420Z,101870.41
2019-01-20T08:36:15.911Z,101877.00
2019-01-20T08:38:47.974Z,101879.59
2019-01-20T08:41:18.324Z,101875.59
2019-01-20T08:43:49.701Z,101881.36
2019-01-20T08:46:26.272Z,101887.99
2019-01-20T08:48:56.727Z,101885.69
2019-01-20T08:51:27.339Z,101886.17
2019-01-20T08:53:57.035Z,101893.78
2019-01-20T08:56:26.767Z,101891.53
2019-01-20T08:58:57.018Z,101900.42
2019-01-20T09:01:27.042Z,101903.14
2019-01-20T09:03:57.094Z,101901.88
2019-01-20T09:06:29.966Z,101908.05
2019-01-20T09:08:59.580Z,101903.63
2019-01-20T09:11:37.767Z,101910.67
2019-01-20T09:14:08.374Z,101909.77
2019-01-20T09:16:38.113Z,101909.36
2019-01-20T09:19:08.151Z,101922.17
2019-01-20T09:21:38.018Z,101920.26
2019-01-20T09:24:09.580Z,101922.52
2019-01-20T09:26:40.206Z,101921.97
2019-01-20T09:29:10.097Z,101930.87
2019-01-20T09:31:40.143Z,101929.36
2019-01-20T09:34:10.148Z,101923.13
2019-01-20T09:36:40.255Z,101926.17
2019-01-20T09:39:11.627Z,101923.07
2019-01-20T09:41:41.603Z,101933.14
2019-01-20T09:44:11.430Z,101931.81
2019-01-20T09:46:41.208Z,101936.55
2019-01-20T09:49:13.574Z,101942.69
2019-01-20T09:51:43.699Z,101944.92
2019-01-20T09:54:13.630Z,101948.28
2019-01-20T09:56:43.538Z,101950.41
2019-01-20T09:59:13.894Z,101953.44
2019-01-20T10:01:45.696Z,101951.98
2019-01-20T10:04:15.624Z,101955.99
2019-01-20T10:06:45.684Z,101954.02
2019-01-20T10:09:15.467Z,101954.73
2019-01-20T10:11:47.505Z,101957.09
2019-01-20T10:14:18.077Z,101947.27
2019-01-20T10:16:53.034Z,101951.78
2019-01-20T10:19:23.437Z,101948.21
2019-01-20T10:21:54.503Z,101942.56
2019-01-20T10:24:24.893Z,101947.48
2019-01-20T10:26:57.944Z,101954.16
2019-01-20T10:29:30.916Z,101955.63
2019-01-20T10:32:01.501Z,101955.41
2019-01-20T10:34:32.347Z,101953.69
2019-01-20T10:37:04.190Z,101956.66
2019-01-20T10:39:34.159Z,101956.61
2019-01-20T10:42:11.004Z,101952.17
2019-01-20T10:44:41.779Z,101956.80
2019-01-20T10:47:12.691Z,101947.11
2019-01-20T10:49:45.976Z,101955.75
2019-01-20T10:52:22.218Z,101945.87
2019-01-20T10:55:12.415Z,101945.68
2019-01-20T10:57:44.846Z,101944.44
2019-01-20T11:00:29.582Z,101948.31
2019-01-20T11:02:59.639Z,101942.05
2019-01-20T11:05:31.637Z,101947.58
2019-01-20T11:08:02.015Z,101949.88
2019-01-20T11:10:32.072Z,101945.55
2019-01-20T11:13:02.355Z,101939.50
2019-01-20T11:15:32.134Z,101945.72
2019-01-20T11:18:02.202Z,101936.84
2019-01-20T11:20:32.542Z,101943.11
2019-01-20T11:23:02.633Z,101950.70
2019-01-20T11:25:35.612Z,101949.94
2019-01-20T11:28:05.507Z,101949.52
2019-01-20T11:30:35.382Z,101947.80
2019-01-20T11:33:05.852Z,101947.59
2019-01-20T11:35:35.788Z,101955.56
2019-01-20T11:38:05.729Z,101958.56
2019-01-20T11:40:35.698Z,101950.22
2019-01-20T11:43:05.579Z,101951.17
2019-01-20T11:45:35.338Z,101948.87
2019-01-20T11:48:05.288Z,101952.89
2019-01-20T11:50:36.087Z,101945.13
2019-01-20T11:53:06.391Z,101952.98
2019-01-20T11:55:36.311Z,101953.72
2019-01-20T11:58:06.791Z,101946.30
2019-01-20T12:00:36.874Z,101954.63
2019-01-20T12:03:06.841Z,101952.33
2019-01-20T12:05:36.884Z,101961.78
2019-01-20T12:08:07.144Z,101965.37
2019-01-20T12:10:37.027Z,101964.02
2019-01-20T12:13:09.347Z,101959.45
2019-01-20T12:15:39.312Z,101957.73
2019-01-20T12:18:09.119Z,101962.44
2019-01-20T12:20:38.999Z,101960.68
2019-01-20T12:23:08.727Z,101963.41
2019-01-20T12:25:38.365Z,101958.91
2019-01-20T12:28:07.985Z,101954.10
2019-01-20T12:30:40.196Z,101955.91
2019-01-20T12:33:10.378Z,101950.08
2019-01-20T12:35:40.812Z,101948.62
2019-01-20T12:38:11.380Z,101948.74
2019-01-20T12:40:43.664Z,101951.05
2019-01-20T12:43:17.050Z,101952.98
2019-01-20T12:45:47.042Z,101946.34
2019-01-20T12:48:16.756Z,101944.10
2019-01-20T12:50:46.768Z,101938.73
2019-01-20T12:53:16.772Z,101942.33
2019-01-20T12:55:47.094Z,101938.52
2019-01-20T12:58:17.007Z,101941.02
2019-01-20T13:00:46.832Z,101941.39
2019-01-20T13:03:17.278Z,101935.78
2019-01-20T13:05:48.820Z,101943.94
2019-01-20T13:08:18.702Z,101939.50
2019-01-20T13:10:48.585Z,101943.09
2019-01-20T13:13:22.643Z,101938.45
2019-01-20T13:15:54.061Z,101939.69
2019-01-20T13:18:23.886Z,101941.51
2019-01-20T13:20:54.360Z,101939.36
2019-01-20T13:23:24.930Z,101947.39
2019-01-20T13:25:55.619Z,101950.57
2019-01-20T13:28:25.706Z,101947.52
2019-01-20T13:30:58.094Z,101960.52
2019-01-20T13:33:29.541Z,101945.80
2019-01-20T13:36:07.036Z,101958.72
2019-01-20T13:38:35.316Z,101952.94
2019-01-20T13:41:06.913Z,101953.34
2019-01-20T13:43:39.111Z,101958.27
2019-01-20T13:46:11.178Z,101959.67
2019-01-20T13:48:42.596Z,101953.83
2019-01-20T13:51:13.555Z,101961.38
2019-01-20T13:53:45.768Z,101957.42
2019-01-20T13:56:21.122Z,101955.66
2019-01-20T13:58:53.922Z,101953.05
2019-01-20T14:01:24.223Z,101954.81
2019-01-20T14:03:54.563Z,101958.44
2019-01-20T14:06:26.941Z,101962.03
2019-01-20T14:08:58.903Z,101966.55
2019-01-20T14:11:29.536Z,101971.89
2019-01-20T14:14:01.034Z,101971.89
2019-01-20T14:16:32.215Z,101972.37
2019-01-20T14:19:02.657Z,101974.20
2019-01-20T14:21:35.626Z,101969.33
2019-01-20T14:24:07.310Z,101973.34
2019-01-20T14:26:38.597Z,101971.63
2019-01-20T14:29:09.407Z,101975.69
2019-01-20T14:31:39.720Z,101972.64
2019-01-20T14:34:10.388Z,101976.37
2019-01-20T14:36:41.294Z,101976.80
2019-01-20T14:39:12.547Z,101975.09
2019-01-20T14:41:43.960Z,101976.95
2019-01-20T14:44:19.024Z,101974.42
2019-01-20T14:46:52.072Z,101970.85
2019-01-20T14:49:23.620Z,101979.35
2019-01-20T14:51:54.354Z,101983.11
2019-01-20T14:54:27.946Z,101980.53
2019-01-20T14:56:59.531Z,101980.15
2019-01-20T14:59:30.894Z,101981.66
2019-01-20T15:02:00.937Z,101978.65
2019-01-20T15:04:31.228Z,101982.73
2019-01-20T15:07:01.405Z,101981.53
2019-01-20T15:09:31.729Z,101981.77
2019-01-20T15:12:05.338Z,101991.73
2019-01-20T15:14:36.213Z,101987.89
2019-01-20T15:17:09.063Z,101992.94
2019-01-20T15:19:40.089Z,101995.73
2019-01-20T15:22:11.424Z,101991.84
2019-01-20T15:24:43.283Z,101989.27
2019-01-20T15:27:15.251Z,101996.48
2019-01-20T15:29:46.583Z,102001.04
2019-01-20T15:32:19.685Z,102003.75
2019-01-20T15:34:51.284Z,102003.34
2019-01-20T15:37:22.624Z,102009.61
2019-01-20T15:39:52.946Z,102004.37
2019-01-20T15:42:23.557Z,102007.97
2019-01-20T15:44:53.483Z,102011.97
2019-01-20T15:47:24.533Z,102013.34
2019-01-20T15:49:54.898Z,102013.86
2019-01-20T15:52:25.410Z,102022.77
2019-01-20T15:54:55.869Z,102019.27
2019-01-20T15:57:26.307Z,102016.63
2019-01-20T15:59:56.890Z,102013.98
2019-01-20T16:02:26.962Z,102017.56
2019-01-20T16:04:56.962Z,102017.55
2019-01-20T16:07:26.986Z,102022.00
2019-01-20T16:09:57.279Z,102026.00
2019-01-20T16:12:27.539Z,102024.70
2019-01-20T16:14:57.756Z,102026.03
2019-01-20T16:17:28.066Z,102022.95
2019-01-20T16:19:58.615Z,102021.19
2019-01-20T16:22:29.415Z,102026.06
2019-01-20T16:24:59.234Z,102023.40
2019-01-20T16:27:29.578Z,102020.77
2019-01-20T16:29:59.667Z,102023.44
2019-01-20T16:32:29.593Z,102023.86
2019-01-20T16:34:59.681Z,102026.09
2019-01-20T16:37:29.819Z,102027.87
2019-01-20T16:39:59.846Z,102030.98
2019-01-20T16:42:29.829Z,102031.39
2019-01-20T16:44:59.735Z,102023.41
2019-01-20T16:47:29.556Z,102030.05
2019-01-20T16:49:59.363Z,102035.39
2019-01-20T16:52:29.331Z,102039.39
2019-01-20T16:54:59.063Z,102035.84
2019-01-20T16:57:28.868Z,102042.06
2019-01-20T16:59:59.046Z,102046.08
2019-01-20T17:02:29.448Z,102044.77
2019-01-20T17:04:59.556Z,102043.45
2019-01-20T17:07:29.621Z,102041.62
2019-01-20T17:10:00.901Z,102050.03
2019-01-20T17:12:30.864Z,102053.57
2019-01-20T17:15:01.083Z,102046.00
2019-01-20T17:17:31.053Z,102053.13
2019-01-20T17:20:01.396Z,102055.38
2019-01-20T17:22:31.472Z,102056.27
2019-01-20T17:25:01.851Z,102054.95
2019-01-20T17:27:32.356Z,102057.61
2019-01-20T17:30:02.537Z,102053.18
2019-01-20T17:32:32.404Z,102056.72
2019-01-20T17:35:02.357Z,102058.95
2019-01-20T17:37:32.225Z,102066.03
2019-01-20T17:40:04.355Z,102069.14
2019-01-20T17:42:34.674Z,102062.48
2019-01-20T17:45:06.303Z,102068.26
2019-01-20T17:47:36.730Z,102074.02
2019-01-20T17:50:09.845Z,102075.33
2019-01-20T17:52:39.819Z,102077.10
2019-01-20T17:55:09.865Z,102069.59
2019-01-20T17:57:39.658Z,102072.23
2019-01-20T18:00:16.183Z,102072.69
2019-01-20T18:02:46.227Z,102069.59
2019-01-20T18:05:18.812Z,102078.89
2019-01-20T18:07:48.941Z,102081.10
2019-01-20T18:10:20.140Z,102084.64
2019-01-20T18:12:50.190Z,102084.64
2019-01-20T18:15:23.321Z,102081.50
2019-01-20T18:17:53.518Z,102086.81
2019-01-20T18:20:31.004Z,102088.14
2019-01-20T18:23:00.751Z,102091.22
2019-01-20T18:25:30.494Z,102093.45
2019-01-20T18:28:03.678Z,102087.25
2019-01-20T18:30:34.584Z,102083.77
2019-01-20T18:33:04.415Z,102088.19
2019-01-20T18:35:34.462Z,102085.51
2019-01-20T18:38:04.364Z,102097.91
2019-01-20T18:40:34.205Z,102098.77
2019-01-20T18:43:04.947Z,102096.55
2019-01-20T18:45:34.848Z,102092.58
2019-01-20T18:48:04.870Z,102097.91
2019-01-20T18:50:37.002Z,102093.92
2019-01-20T18:53:07.065Z,102105.44
2019-01-20T18:55:36.961Z,102107.63
2019-01-20T18:58:07.205Z,102110.70
2019-01-20T19:00:41.281Z,102112.45
2019-01-20T19:03:11.139Z,102110.67
2019-01-20T19:05:41.236Z,102119.97
2019-01-20T19:08:11.528Z,102119.95
2019-01-20T19:10:41.801Z,102130.13
2019-01-20T19:13:13.394Z,102132.80
2019-01-20T19:15:43.924Z,102138.57
2019-01-20T19:18:19.072Z,102138.13
2019-01-20T19:20:50.267Z,102127.97
2019-01-20T19:23:20.432Z,102139.02
2019-01-20T19:25:50.756Z,102145.59
2019-01-20T19:28:22.576Z,102145.14
2019-01-20T19:30:55.233Z,102151.30
2019-01-20T19:33:27.780Z,102147.74
2019-01-20T19:35:58.045Z,102147.24
2019-01-20T19:38:28.025Z,102138.56
2019-01-20T19:40:59.552Z,102134.60
2019-01-20T19:43:39.926Z,102127.55
2019-01-20T19:46:16.117Z,102131.91
2019-01-20T19:48:46.450Z,102134.96
2019-01-20T19:51:17.346Z,102133.66
2019-01-20T19:53:50.610Z,102140.28
2019-01-20T19:56:21.998Z,102148.24
2019-01-20T19:58:55.567Z,102146.49
2019-01-20T20:01:30.744Z,102139.02
2019-01-20T20:03:57.897Z,102143.87
2019-01-20T20:06:31.792Z,102146.88
2019-01-20T20:09:03.593Z,102149.09
2019-01-20T20:11:35.693Z,102148.66
2019-01-20T20:14:05.727Z,102153.53
2019-01-20T20:16:36.600Z,102156.68
2019-01-20T20:19:06.344Z,102159.34
2019-01-20T20:22:09.744Z,102159.34
2019-01-20T20:24:40.882Z,102166.45
2019-01-20T20:27:42.243Z,102157.17
2019-01-20T20:34:10.952Z,102174.31
2019-01-20T20:37:46.657Z,102171.20
2019-01-20T20:40:21.170Z,102169.48
2019-01-20T20:42:52.430Z,102168.61
2019-01-20T20:45:26.885Z,102168.15
2019-01-20T20:47:57.189Z,102176.52
2019-01-20T20:50:27.304Z,102183.53
2019-01-20T20:52:57.359Z,102183.09
2019-01-20T20:55:27.212Z,102184.88
2019-01-20T20:57:57.784Z,102191.05
2019-01-20T21:00:34.502Z,102191.48
2019-01-20T21:03:07.946Z,102192.37
2019-01-20T21:05:37.849Z,102199.50
2019-01-20T21:08:08.394Z,102199.53
2019-01-20T21:10:38.529Z,102195.57
2019-01-20T21:13:13.514Z,102196.02
2019-01-20T21:15:43.490Z,102199.59
2019-01-20T21:18:15.374Z,102190.83
2019-01-20T21:20:45.453Z,102182.45
2019-01-20T21:23:47.561Z,102193.45
2019-01-20T21:26:27.262Z,102192.59
2019-01-20T21:29:31.183Z,102195.26
2019-01-20T21:32:06.610Z,102203.66
2019-01-20T21:34:37.380Z,102201.95
2019-01-20T21:37:07.884Z,102191.77
2019-01-20T21:40:00.423Z,102189.11
2019-01-20T21:42:42.485Z,102185.59
2019-01-20T21:45:22.329Z,102195.36
2019-01-20T21:47:52.567Z,102193.56
2019-01-20T21:50:27.912Z,102198.42
2019-01-20T21:52:59.362Z,102200.66
2019-01-20T21:55:30.952Z,102199.79
2019-01-20T21:58:03.235Z,102198.88
2019-01-20T22:00:36.518Z,102198.89
2019-01-20T22:03:07.049Z,102201.52
2019-01-20T22:05:37.882Z,102203.76
2019-01-20T22:08:08.512Z,102203.83
2019-01-20T22:10:54.442Z,102207.37
2019-01-20T22:13:29.991Z,102210.41
2019-01-20T22:16:02.786Z,102205.16
2019-01-20T22:18:34.069Z,102198.05
2019-01-20T22:21:07.092Z,102196.72
2019-01-20T22:23:37.450Z,102200.20
2019-01-20T22:26:07.598Z,102199.27
2019-01-20T22:28:37.725Z,102200.16
2019-01-20T22:31:07.714Z,102202.43
2019-01-20T22:33:37.609Z,102209.97
2019-01-20T22:36:07.871Z,102209.47
2019-01-20T22:39:01.243Z,102212.56
2019-01-20T22:41:49.401Z,102210.37
2019-01-20T22:44:22.400Z,102209.44
2019-01-20T22:46:52.358Z,102208.55
2019-01-20T22:49:22.181Z,102208.47
2019-01-20T22:51:52.016Z,102205.34
2019-01-20T22:54:22.767Z,102209.74
2019-01-20T22:56:54.396Z,102216.78
2019-01-20T22:59:26.963Z,102217.19
2019-01-20T23:01:57.186Z,102228.62
2019-01-20T23:04:28.161Z,102222.05
2019-01-20T23:06:58.266Z,102220.72
2019-01-20T23:09:30.852Z,102219.38
2019-01-20T23:12:01.763Z,102223.74
2019-01-20T23:14:31.706Z,102223.34
2019-01-20T23:17:07.609Z,102214.06
2019-01-20T23:19:33.220Z,102216.15
2019-01-20T23:22:06.336Z,102217.08
2019-01-20T23:24:37.026Z,102216.94
2019-01-20T23:27:10.186Z,102218.33
2019-01-20T23:29:40.444Z,102221.81
2019-01-20T23:32:11.122Z,102222.73
2019-01-20T23:34:41.176Z,102217.84
2019-01-20T23:37:11.757Z,102220.22
2019-01-20T23:39:42.290Z,102216.14
2019-01-20T23:42:14.618Z,102212.53
2019-01-20T23:44:44.808Z,102227.09
2019-01-20T23:47:15.495Z,102223.52
2019-01-20T23:49:45.462Z,102219.08
2019-01-20T23:52:18.428Z,102214.15
2019-01-20T23:54:48.522Z,102219.41
2019-01-20T23:57:20.279Z,102211.02
2019-01-20T23:59:50.390Z,102210.56
